Time;durP1;ratioP1;P1;durP2;ratioP2;P2;SDS_P1;SDS_P2;PMS_P1;PMS_P2;Temp;Humidity;BMP_temperature;BMP_pressure;BME280_temperature;BME280_humidity;BME280_pressure;Samples;Min_cycle;Max_cycle;Signal;HPM_P1;HPM_P2
2022/09/11 00:00:31;;;;;;;115.40;40.90;;;;;;;;;;5068884;28;20589;-61
2022/09/11 00:02:57;;;;;;;118.63;40.17;;;;;;;;;;5069127;28;20076;-60
2022/09/11 00:05:24;;;;;;;112.70;39.77;;;;;;;;;;5069383;28;20075;-61
2022/09/11 00:07:51;;;;;;;80.53;35.10;;;;;;;;;;5068826;28;20048;-61
2022/09/11 00:10:17;;;;;;;126.67;42.30;;;;;;;;;;5068990;28;20056;-61
2022/09/11 00:12:43;;;;;;;153.30;47.87;;;;;;;;;;5069038;28;20056;-61
2022/09/11 00:15:09;;;;;;;153.27;48.87;;;;;;;;;;5068706;28;20053;-61
2022/09/11 00:17:36;;;;;;;139.10;44.20;;;;;;;;;;5068601;28;20036;-60
2022/09/11 00:20:03;;;;;;;135.70;46.20;;;;;;;;;;5069009;28;20091;-61
2022/09/11 00:22:29;;;;;;;154.57;49.60;;;;;;;;;;5068384;28;20209;-60
2022/09/11 00:24:56;;;;;;;142.23;47.87;;;;;;;;;;5068848;28;20063;-61
2022/09/11 00:27:23;;;;;;;187.10;52.17;;;;;;;;;;5068786;28;20040;-61
2022/09/11 00:29:49;;;;;;;150.80;48.47;;;;;;;;;;5058316;28;20049;-61
2022/09/11 00:32:15;;;;;;;179.47;50.20;;;;;;;;;;5055353;28;20566;-61
2022/09/11 00:34:41;;;;;;;130.27;45.37;;;;;;;;;;5068711;28;20410;-61
2022/09/11 00:37:08;;;;;;;194.47;53.53;;;;;;;;;;5068503;28;20052;-61
2022/09/11 00:39:34;;;;;;;115.90;44.87;;;;;;;;;;5068686;28;20044;-61
2022/09/11 00:42:01;;;;;;;83.57;36.87;;;;;;;;;;5068125;28;20048;-61
2022/09/11 00:44:27;;;;;;;139.17;45.17;;;;;;;;;;5068279;28;20083;-61
2022/09/11 00:46:54;;;;;;;112.07;41.13;;;;;;;;;;5060371;28;20439;-61
2022/09/11 00:49:20;;;;;;;130.57;45.40;;;;;;;;;;5068128;28;20072;-61
2022/09/11 00:51:49;;;;;;;127.20;41.00;;;;;;;;;;5067651;28;20045;-61
2022/09/11 00:54:17;;;;;;;151.13;47.20;;;;;;;;;;5068055;28;20037;-61
2022/09/11 00:56:43;;;;;;;134.23;44.70;;;;;;;;;;5066486;28;20044;-61
2022/09/11 00:59:10;;;;;;;169.43;49.60;;;;;;;;;;5061577;28;20479;-61
2022/09/11 01:01:36;;;;;;;125.10;37.13;;;;;;;;;;5067879;28;20037;-61
2022/09/11 01:04:03;;;;;;;102.87;32.97;;;;;;;;;;5067974;28;20414;-61
2022/09/11 01:06:30;;;;;;;130.20;35.63;;;;;;;;;;5067841;28;20094;-61
2022/09/11 01:08:58;;;;;;;214.30;43.83;;;;;;;;;;5067701;28;20180;-61
2022/09/11 01:11:31;;;;;;;149.30;41.63;;;;;;;;;;5067989;28;20059;-61
2022/09/11 01:13:57;;;;;;;80.03;33.70;;;;;;;;;;5067048;28;20626;-61
2022/09/11 01:16:22;;;;;;;100.50;35.57;;;;;;;;;;5067961;28;20140;-61
2022/09/11 01:19:07;;;;;;;110.63;36.70;;;;;;;;;;5066707;28;20091;-61
2022/09/11 01:21:40;;;;;;;117.57;38.43;;;;;;;;;;5067751;28;20036;-60
2022/09/11 01:24:08;;;;;;;135.70;40.33;;;;;;;;;;5060434;28;20127;-60
2022/09/11 01:26:42;;;;;;;100.97;35.10;;;;;;;;;;5070717;28;20048;-61
2022/09/11 01:29:30;;;;;;;121.23;36.30;;;;;;;;;;5071831;28;20041;-61
2022/09/11 01:32:10;;;;;;;94.20;31.17;;;;;;;;;;5071518;28;20049;-61
2022/09/11 01:34:45;;;;;;;92.53;27.80;;;;;;;;;;5071353;28;20072;-61
2022/09/11 01:37:17;;;;;;;133.90;32.33;;;;;;;;;;5064588;28;20049;-61
2022/09/11 01:39:49;;;;;;;314.03;46.27;;;;;;;;;;5063617;28;20052;-60
2022/09/11 01:42:19;;;;;;;74.10;27.17;;;;;;;;;;5064663;28;20037;-61
2022/09/11 01:44:51;;;;;;;111.90;36.03;;;;;;;;;;5071808;28;20564;-61
2022/09/11 01:47:17;;;;;;;100.70;36.30;;;;;;;;;;5072236;28;20040;-61
2022/09/11 01:49:49;;;;;;;85.40;31.00;;;;;;;;;;5064734;28;20048;-61
2022/09/11 01:52:18;;;;;;;128.83;41.43;;;;;;;;;;5060764;28;20384;-61
2022/09/11 01:54:51;;;;;;;119.60;39.87;;;;;;;;;;5068639;28;20487;-61
2022/09/11 01:57:27;;;;;;;116.10;40.25;;;;;;;;;;5064766;28;20036;-61
2022/09/11 01:59:56;;;;;;;167.47;49.50;;;;;;;;;;5072034;28;20048;-61
2022/09/11 02:02:26;;;;;;;120.10;39.43;;;;;;;;;;5071944;28;20045;-60
2022/09/11 02:04:58;;;;;;;115.33;41.07;;;;;;;;;;5072115;28;20048;-61
2022/09/11 02:07:27;;;;;;;147.77;46.40;;;;;;;;;;5064892;28;20037;-61
2022/09/11 02:09:57;;;;;;;194.10;52.00;;;;;;;;;;5071510;28;20049;-61
2022/09/11 02:12:28;;;;;;;172.57;47.60;;;;;;;;;;5072368;28;20076;-61
2022/09/11 02:14:55;;;;;;;212.30;52.03;;;;;;;;;;5071276;28;20040;-61
2022/09/11 02:17:30;;;;;;;129.37;41.60;;;;;;;;;;5072027;28;20052;-61
2022/09/11 02:19:57;;;;;;;213.93;52.10;;;;;;;;;;5063717;28;20049;-61
2022/09/11 02:22:23;;;;;;;110.13;34.23;;;;;;;;;;5071602;28;20040;-61
2022/09/11 02:24:49;;;;;;;113.97;33.03;;;;;;;;;;5071981;28;20041;-61
2022/09/11 02:27:18;;;;;;;174.20;42.07;;;;;;;;;;5071085;28;20049;-61
2022/09/11 02:29:44;;;;;;;137.60;37.40;;;;;;;;;;5071295;28;20040;-61
2022/09/11 02:32:11;;;;;;;105.53;33.37;;;;;;;;;;5071413;28;20048;-61
2022/09/11 02:34:38;;;;;;;94.13;30.97;;;;;;;;;;5071752;28;20082;-60
2022/09/11 02:37:04;;;;;;;72.97;30.70;;;;;;;;;;5062090;28;20042;-61
2022/09/11 02:39:33;;;;;;;105.33;35.47;;;;;;;;;;5070533;28;20044;-61
2022/09/11 02:42:18;;;;;;;115.20;39.10;;;;;;;;;;5071196;28;20449;-61
2022/09/11 02:44:56;;;;;;;104.17;34.60;;;;;;;;;;5071366;28;20521;-61
2022/09/11 02:47:41;;;;;;;117.30;36.77;;;;;;;;;;5071166;28;20055;-61
2022/09/11 02:50:31;;;;;;;112.80;34.07;;;;;;;;;;5070967;28;20189;-61
2022/09/11 02:53:06;;;;;;;75.03;26.43;;;;;;;;;;5071558;28;20049;-61
2022/09/11 02:56:01;;;;;;;118.00;35.47;;;;;;;;;;5070933;28;20044;-61
2022/09/11 02:58:31;;;;;;;161.67;44.23;;;;;;;;;;5015958;28;20575;-61
2022/09/11 03:00:58;;;;;;;625.00;79.90;;;;;;;;;;5064308;28;20457;-61
2022/09/11 03:03:24;;;;;;;164.27;45.27;;;;;;;;;;5069081;28;20086;-61
2022/09/11 03:05:50;;;;;;;232.77;53.33;;;;;;;;;;5070954;28;20521;-61
2022/09/11 03:08:17;;;;;;;165.77;44.23;;;;;;;;;;5071045;28;20559;-61
2022/09/11 03:10:48;;;;;;;160.37;46.27;;;;;;;;;;5070437;28;20063;-61
2022/09/11 03:13:15;;;;;;;145.13;41.07;;;;;;;;;;5062704;28;20045;-61
2022/09/11 03:15:42;;;;;;;219.73;50.00;;;;;;;;;;5070944;28;20045;-61
2022/09/11 03:18:09;;;;;;;206.67;49.60;;;;;;;;;;5070293;28;20504;-61
2022/09/11 03:20:35;;;;;;;201.13;46.63;;;;;;;;;;5070089;28;20120;-61
2022/09/11 03:23:07;;;;;;;365.60;61.57;;;;;;;;;;5071114;28;20119;-60
2022/09/11 03:25:33;;;;;;;201.00;46.77;;;;;;;;;;5070478;28;20045;-61
2022/09/11 03:27:59;;;;;;;267.43;54.00;;;;;;;;;;5070532;28;20079;-61
2022/09/11 03:30:25;;;;;;;157.60;46.07;;;;;;;;;;5070348;28;20043;-61
2022/09/11 03:32:52;;;;;;;189.10;48.33;;;;;;;;;;5061596;28;20048;-61
2022/09/11 03:35:19;;;;;;;264.77;55.13;;;;;;;;;;5070431;28;20048;-61
2022/09/11 03:37:46;;;;;;;183.33;48.90;;;;;;;;;;5070719;28;20819;-61
2022/09/11 03:40:12;;;;;;;149.70;43.10;;;;;;;;;;5063358;28;20074;-61
2022/09/11 03:42:38;;;;;;;164.67;46.17;;;;;;;;;;5070602;28;20052;-61
2022/09/11 03:45:04;;;;;;;112.63;37.80;;;;;;;;;;5069853;28;20044;-61
2022/09/11 03:47:30;;;;;;;189.43;50.23;;;;;;;;;;5067488;28;20037;-61
2022/09/11 03:49:56;;;;;;;320.83;65.07;;;;;;;;;;5070193;28;20043;-61
2022/09/11 03:52:22;;;;;;;181.93;46.00;;;;;;;;;;5070032;28;20044;-61
2022/09/11 03:54:48;;;;;;;125.53;38.03;;;;;;;;;;5069733;28;20045;-61
2022/09/11 03:57:14;;;;;;;185.73;46.33;;;;;;;;;;5069238;28;20052;-60
2022/09/11 03:59:40;;;;;;;560.73;69.73;;;;;;;;;;5069583;28;20487;-61
2022/09/11 04:02:06;;;;;;;876.43;95.80;;;;;;;;;;5070113;28;20036;-61
2022/09/11 04:04:33;;;;;;;666.57;80.07;;;;;;;;;;5069903;28;20052;-61
2022/09/11 04:06:59;;;;;;;643.20;76.53;;;;;;;;;;5069719;28;20075;-60
2022/09/11 04:09:26;;;;;;;654.83;78.10;;;;;;;;;;5069737;28;20087;-61
2022/09/11 04:11:52;;;;;;;450.77;65.30;;;;;;;;;;5069306;28;20506;-61
2022/09/11 04:14:18;;;;;;;296.17;50.50;;;;;;;;;;5070136;28;20430;-61
2022/09/11 04:16:44;;;;;;;533.30;70.03;;;;;;;;;;5067251;28;20564;-61
2022/09/11 04:19:12;;;;;;;426.77;61.47;;;;;;;;;;5063700;28;20052;-61
2022/09/11 04:21:38;;;;;;;407.67;61.00;;;;;;;;;;5068990;28;20173;-61
2022/09/11 04:24:04;;;;;;;295.47;50.30;;;;;;;;;;5069874;28;20062;-61
2022/09/11 04:26:31;;;;;;;217.37;43.10;;;;;;;;;;5069525;28;20094;-61
2022/09/11 04:28:57;;;;;;;187.97;40.60;;;;;;;;;;5069242;28;20045;-61
2022/09/11 04:31:26;;;;;;;273.33;52.33;;;;;;;;;;5069281;28;20040;-61
2022/09/11 04:33:53;;;;;;;167.10;38.93;;;;;;;;;;5069408;28;20043;-61
2022/09/11 04:36:20;;;;;;;281.00;53.53;;;;;;;;;;5069803;28;20086;-61
2022/09/11 04:38:46;;;;;;;244.87;49.40;;;;;;;;;;5068741;28;20068;-61
2022/09/11 04:41:13;;;;;;;346.33;54.80;;;;;;;;;;5068803;28;20350;-61
2022/09/11 04:43:39;;;;;;;113.33;35.40;;;;;;;;;;5069136;28;20045;-61
2022/09/11 04:46:07;;;;;;;169.37;38.27;;;;;;;;;;5068885;28;20459;-60
2022/09/11 04:48:33;;;;;;;178.37;39.83;;;;;;;;;;5069290;28;20036;-61
2022/09/11 04:51:00;;;;;;;151.13;36.53;;;;;;;;;;5069736;28;20036;-61
2022/09/11 04:53:27;;;;;;;196.10;44.47;;;;;;;;;;5069431;28;20044;-61
2022/09/11 04:56:01;;;;;;;87.17;31.47;;;;;;;;;;5069670;28;20391;-61
2022/09/11 04:58:28;;;;;;;109.72;36.55;;;;;;;;;;5068253;28;20053;-61
2022/09/11 05:00:54;;;;;;;225.73;49.07;;;;;;;;;;5070870;28;20507;-61
2022/09/11 05:03:20;;;;;;;540.87;70.10;;;;;;;;;;5073154;28;20505;-61
2022/09/11 05:05:46;;;;;;;663.57;79.20;;;;;;;;;;5072998;28;20048;-61
2022/09/11 05:08:12;;;;;;;281.03;53.93;;;;;;;;;;5072616;28;20095;-61
2022/09/11 05:10:38;;;;;;;169.67;40.40;;;;;;;;;;5070853;28;20538;-61
2022/09/11 05:13:04;;;;;;;185.27;39.03;;;;;;;;;;5071708;28;20072;-61
2022/09/11 05:15:30;;;;;;;379.03;58.50;;;;;;;;;;5071229;28;20059;-61
2022/09/11 05:17:57;;;;;;;488.20;67.80;;;;;;;;;;5072084;28;20040;-61
2022/09/11 05:20:23;;;;;;;594.37;67.27;;;;;;;;;;5071973;28;20076;-61
2022/09/11 05:22:50;;;;;;;422.10;54.23;;;;;;;;;;5071456;28;20194;-61
2022/09/11 05:25:17;;;;;;;713.50;78.27;;;;;;;;;;5071695;28;20538;-61
2022/09/11 05:27:43;;;;;;;682.97;80.00;;;;;;;;;;5071202;28;20518;-61
2022/09/11 05:30:10;;;;;;;491.37;67.17;;;;;;;;;;5070537;28;20469;-61
2022/09/11 05:32:36;;;;;;;488.70;66.03;;;;;;;;;;5071817;28;20063;-61
2022/09/11 05:35:02;;;;;;;410.83;60.93;;;;;;;;;;5071189;28;20414;-61
2022/09/11 05:37:28;;;;;;;418.27;60.40;;;;;;;;;;5071442;28;20068;-61
2022/09/11 05:39:54;;;;;;;505.40;70.73;;;;;;;;;;5071278;28;20146;-61
2022/09/11 05:42:20;;;;;;;431.33;65.33;;;;;;;;;;5071664;28;20040;-61
2022/09/11 05:44:47;;;;;;;424.70;63.53;;;;;;;;;;5071291;28;21010;-61
2022/09/11 05:47:13;;;;;;;405.13;65.07;;;;;;;;;;5063216;28;20514;-61
2022/09/11 05:49:39;;;;;;;143.37;35.63;;;;;;;;;;5071435;28;20052;-61
2022/09/11 05:52:05;;;;;;;385.27;57.67;;;;;;;;;;5071127;28;20048;-61
2022/09/11 05:54:31;;;;;;;250.00;51.07;;;;;;;;;;5070784;28;20040;-61
2022/09/11 05:56:57;;;;;;;305.50;58.57;;;;;;;;;;5070596;28;20047;-61
2022/09/11 05:59:25;;;;;;;204.33;45.33;;;;;;;;;;5071192;28;20108;-61
2022/09/11 06:01:52;;;;;;;106.43;36.77;;;;;;;;;;5062660;28;20475;-61
2022/09/11 06:04:18;;;;;;;118.17;38.17;;;;;;;;;;5071087;28;20044;-60
2022/09/11 06:06:48;;;;;;;88.77;34.80;;;;;;;;;;5070792;28;20041;-60
2022/09/11 06:09:14;;;;;;;104.40;38.17;;;;;;;;;;5062431;28;20056;-61
2022/09/11 06:11:40;;;;;;;81.10;34.00;;;;;;;;;;5070702;28;20055;-61
2022/09/11 06:14:07;;;;;;;70.07;31.10;;;;;;;;;;5070331;28;20432;-61
2022/09/11 06:16:34;;;;;;;150.67;40.83;;;;;;;;;;5069514;28;20410;-61
2022/09/11 06:19:00;;;;;;;172.93;46.27;;;;;;;;;;5070640;28;20417;-61
2022/09/11 06:21:28;;;;;;;174.20;47.63;;;;;;;;;;5062251;28;20094;-61
2022/09/11 06:23:54;;;;;;;145.27;43.77;;;;;;;;;;5067080;28;20056;-61
2022/09/11 06:26:21;;;;;;;236.17;51.30;;;;;;;;;;5069147;28;20498;-61
2022/09/11 06:28:47;;;;;;;200.33;48.13;;;;;;;;;;5070872;28;20051;-60
2022/09/11 06:31:21;;;;;;;212.53;48.87;;;;;;;;;;5070609;28;20048;-61
2022/09/11 06:33:47;;;;;;;99.23;36.33;;;;;;;;;;5070513;28;20453;-61
2022/09/11 06:36:17;;;;;;;83.90;35.77;;;;;;;;;;5070442;28;20049;-61
2022/09/11 06:38:44;;;;;;;78.00;33.60;;;;;;;;;;5069927;28;20604;-61
2022/09/11 06:41:11;;;;;;;89.73;34.37;;;;;;;;;;5070082;28;20049;-61
2022/09/11 06:43:37;;;;;;;99.00;36.17;;;;;;;;;;5062714;28;20037;-61
2022/09/11 06:46:08;;;;;;;24.30;15.80;;;;;;;;;;5070085;28;20489;-61
2022/09/11 06:48:34;;;;;;;77.20;34.63;;;;;;;;;;5070271;28;20059;-61
2022/09/11 06:51:03;;;;;;;64.47;29.97;;;;;;;;;;5068479;28;20048;-61
2022/09/11 06:53:29;;;;;;;68.57;31.37;;;;;;;;;;5061687;28;20055;-61
2022/09/11 06:56:03;;;;;;;89.73;37.70;;;;;;;;;;5069851;28;20525;-61
2022/09/11 06:58:29;;;;;;;28.10;17.83;;;;;;;;;;5068414;28;20044;-65
2022/09/11 07:01:16;;;;;;;85.77;35.07;;;;;;;;;;5070156;28;20094;-61
2022/09/11 07:03:44;;;;;;;38.20;21.90;;;;;;;;;;5069014;28;20040;-61
2022/09/11 07:06:10;;;;;;;49.17;29.70;;;;;;;;;;5070223;28;20036;-62
2022/09/11 07:08:36;;;;;;;29.53;20.00;;;;;;;;;;5068693;28;20410;-61
2022/09/11 07:11:05;;;;;;;47.23;29.30;;;;;;;;;;5069439;28;20056;-61
2022/09/11 07:13:33;;;;;;;22.07;15.17;;;;;;;;;;5063562;28;20059;-61
2022/09/11 07:16:03;;;;;;;36.30;24.47;;;;;;;;;;5099611;27;20850;-62
2022/09/11 07:18:39;;;;;;;29.83;19.20;;;;;;;;;;5069959;28;20171;-61
2022/09/11 07:21:06;;;;;;;12.23;9.83;;;;;;;;;;5066333;28;20093;-61
2022/09/11 07:23:33;;;;;;;28.50;18.70;;;;;;;;;;5068586;28;20123;-61
2022/09/11 07:26:02;;;;;;;36.37;24.80;;;;;;;;;;5068846;28;20041;-61
2022/09/11 07:28:28;;;;;;;37.33;25.03;;;;;;;;;;5069528;28;20044;-61
2022/09/11 07:30:54;;;;;;;45.93;28.13;;;;;;;;;;5069610;28;20048;-61
2022/09/11 07:33:21;;;;;;;22.20;14.57;;;;;;;;;;5069359;28;20041;-60
2022/09/11 07:35:47;;;;;;;38.83;23.93;;;;;;;;;;5069356;28;20084;-60
2022/09/11 07:38:14;;;;;;;45.57;27.57;;;;;;;;;;5070013;28;20490;-60
2022/09/11 07:40:40;;;;;;;17.77;12.17;;;;;;;;;;5061269;28;20820;-60
2022/09/11 07:43:06;;;;;;;29.73;22.67;;;;;;;;;;5053105;28;20172;-60
2022/09/11 07:45:32;;;;;;;35.53;23.10;;;;;;;;;;5069124;28;20040;-60
2022/09/11 07:48:00;;;;;;;22.63;15.63;;;;;;;;;;5060723;28;20040;-60
2022/09/11 07:50:26;;;;;;;27.67;20.57;;;;;;;;;;5069255;28;20075;-60
2022/09/11 07:52:52;;;;;;;20.23;14.97;;;;;;;;;;5060593;28;20496;-60
2022/09/11 07:55:18;;;;;;;32.53;22.33;;;;;;;;;;5069126;28;20036;-60
2022/09/11 07:57:45;;;;;;;18.60;13.20;;;;;;;;;;5068943;28;20036;-60
2022/09/11 08:00:12;;;;;;;16.33;12.47;;;;;;;;;;5068514;28;20110;-61
2022/09/11 08:02:38;;;;;;;15.30;11.93;;;;;;;;;;5069296;28;20037;-61
2022/09/11 08:05:04;;;;;;;21.37;17.83;;;;;;;;;;5067203;28;20044;-61
2022/09/11 08:07:30;;;;;;;18.33;15.83;;;;;;;;;;5062973;28;20045;-62
2022/09/11 08:09:56;;;;;;;35.70;23.17;;;;;;;;;;5068071;28;20056;-61
2022/09/11 08:12:22;;;;;;;15.43;12.20;;;;;;;;;;5060409;28;20094;-61
2022/09/11 08:14:48;;;;;;;21.83;17.73;;;;;;;;;;5068565;28;20128;-60
2022/09/11 08:17:15;;;;;;;22.63;15.97;;;;;;;;;;5067269;28;20127;-60
2022/09/11 08:19:41;;;;;;;18.67;15.93;;;;;;;;;;5065864;28;20045;-60
2022/09/11 08:22:07;;;;;;;22.73;17.17;;;;;;;;;;5067991;28;20398;-61
2022/09/11 08:24:33;;;;;;;15.10;12.53;;;;;;;;;;5068281;28;20120;-60
2022/09/11 08:26:59;;;;;;;21.17;16.67;;;;;;;;;;5068128;28;20132;-60
2022/09/11 08:29:25;;;;;;;18.23;16.17;;;;;;;;;;5066871;28;20485;-61
2022/09/11 08:31:51;;;;;;;23.00;18.77;;;;;;;;;;5070646;28;20044;-64
2022/09/11 08:34:20;;;;;;;19.57;15.47;;;;;;;;;;5068109;28;20051;-61
2022/09/11 08:36:46;;;;;;;16.07;14.53;;;;;;;;;;5068808;28;20060;-60
2022/09/11 08:39:12;;;;;;;11.07;9.10;;;;;;;;;;5068792;28;20457;-61
2022/09/11 08:41:48;;;;;;;10.40;9.03;;;;;;;;;;5067764;28;20490;-61
2022/09/11 08:44:21;;;;;;;9.27;6.50;;;;;;;;;;5068883;28;20037;-62
2022/09/11 08:47:07;;;;;;;10.63;6.70;;;;;;;;;;5066988;28;20044;-61
2022/09/11 08:49:33;;;;;;;8.80;6.17;;;;;;;;;;5067013;28;20055;-61
2022/09/11 08:52:01;;;;;;;9.13;5.40;;;;;;;;;;5068361;28;20131;-61
2022/09/11 08:54:27;;;;;;;5.67;3.80;;;;;;;;;;5066977;28;20032;-60
2022/09/11 08:57:01;;;;;;;6.07;3.40;;;;;;;;;;5065125;28;20052;-60
2022/09/11 08:59:37;;;;;;;6.10;4.07;;;;;;;;;;5067473;28;20076;-61
2022/09/11 09:02:37;;;;;;;6.70;3.30;;;;;;;;;;5067913;28;20485;-61
2022/09/11 09:05:05;;;;;;;6.93;4.27;;;;;;;;;;5017807;28;20058;-61
2022/09/11 09:07:48;;;;;;;7.83;4.63;;;;;;;;;;5064523;28;20102;-61
2022/09/11 09:10:23;;;;;;;7.53;4.50;;;;;;;;;;5066567;28;20060;-61
2022/09/11 09:13:04;;;;;;;9.10;4.77;;;;;;;;;;5066700;28;20499;-61
2022/09/11 09:15:41;;;;;;;5.63;4.30;;;;;;;;;;5066580;28;20044;-61
2022/09/11 09:18:11;;;;;;;7.00;3.23;;;;;;;;;;5066667;28;20045;-62
2022/09/11 09:20:44;;;;;;;8.00;3.43;;;;;;;;;;5067137;28;20075;-61
2022/09/11 09:23:20;;;;;;;6.88;3.03;;;;;;;;;;5067194;28;20071;-62
2022/09/11 09:25:48;;;;;;;7.20;3.23;;;;;;;;;;5067284;28;20221;-61
2022/09/11 09:28:14;;;;;;;5.32;2.67;;;;;;;;;;5066229;28;20083;-61
2022/09/11 09:30:57;;;;;;;8.05;2.88;;;;;;;;;;5066962;28;20049;-61
2022/09/11 09:33:26;;;;;;;7.50;2.55;;;;;;;;;;5067503;28;20044;-61
2022/09/11 09:35:53;;;;;;;5.93;2.50;;;;;;;;;;5062230;28;20059;-62
2022/09/11 09:38:26;;;;;;;4.80;2.70;;;;;;;;;;5067723;28;20120;-62
2022/09/11 09:41:01;;;;;;;4.65;2.50;;;;;;;;;;5067249;28;20080;-62
2022/09/11 09:43:28;;;;;;;6.67;2.30;;;;;;;;;;5067756;28;20044;-61
2022/09/11 09:46:03;;;;;;;4.97;2.73;;;;;;;;;;5068201;28;20102;-61
2022/09/11 09:48:32;;;;;;;5.53;2.50;;;;;;;;;;5071587;28;20041;-62
2022/09/11 09:50:58;;;;;;;5.57;2.80;;;;;;;;;;5070660;28;20123;-62
2022/09/11 09:53:36;;;;;;;6.07;3.30;;;;;;;;;;5071441;28;20090;-62
2022/09/11 09:56:04;;;;;;;5.47;2.70;;;;;;;;;;5071372;28;20041;-61
2022/09/11 09:58:32;;;;;;;5.83;2.73;;;;;;;;;;5071294;28;20051;-62
2022/09/11 10:00:58;;;;;;;5.33;2.80;;;;;;;;;;5070929;28;20048;-62
2022/09/11 10:03:25;;;;;;;5.55;2.35;;;;;;;;;;5071516;28;20037;-61
2022/09/11 10:05:53;;;;;;;3.45;2.10;;;;;;;;;;5071448;28;20487;-61
2022/09/11 10:08:28;;;;;;;5.47;1.98;;;;;;;;;;5070939;28;20148;-62
2022/09/11 10:10:58;;;;;;;6.03;2.40;;;;;;;;;;5070006;28;20048;-61
2022/09/11 10:13:27;;;;;;;5.10;1.80;;;;;;;;;;5070794;28;20044;-62
2022/09/11 10:15:54;;;;;;;4.20;2.03;;;;;;;;;;5070408;28;20053;-62
2022/09/11 10:18:31;;;;;;;6.32;2.20;;;;;;;;;;5070973;28;20454;-62
2022/09/11 10:21:12;;;;;;;4.00;1.80;;;;;;;;;;5070620;28;20048;-62
2022/09/11 10:23:45;;;;;;;7.72;2.17;;;;;;;;;;5070899;28;20125;-61
2022/09/11 10:26:16;;;;;;;4.80;1.95;;;;;;;;;;5070448;28;20063;-62
2022/09/11 10:28:44;;;;;;;4.07;1.90;;;;;;;;;;5070971;28;20124;-62
2022/09/11 10:31:13;;;;;;;4.70;1.87;;;;;;;;;;5070011;28;20052;-62
2022/09/11 10:33:40;;;;;;;6.83;2.07;;;;;;;;;;5070789;28;21309;-61
2022/09/11 10:36:08;;;;;;;6.87;1.97;;;;;;;;;;5070585;28;20060;-62
2022/09/11 10:38:37;;;;;;;4.00;1.70;;;;;;;;;;5070301;28;20043;-62
2022/09/11 10:41:14;;;;;;;3.33;1.60;;;;;;;;;;5070338;28;20091;-62
2022/09/11 10:43:49;;;;;;;4.37;1.50;;;;;;;;;;5070475;28;20043;-62
2022/09/11 10:46:18;;;;;;;3.22;1.42;;;;;;;;;;5070342;28;20036;-62
2022/09/11 10:48:54;;;;;;;3.65;1.52;;;;;;;;;;5070608;28;20056;-62
2022/09/11 10:51:20;;;;;;;2.75;1.17;;;;;;;;;;5061980;28;20064;-62
2022/09/11 10:54:06;;;;;;;3.58;1.20;;;;;;;;;;5070680;28;20044;-62
2022/09/11 10:56:38;;;;;;;3.28;1.50;;;;;;;;;;5023043;28;20044;-62
2022/09/11 10:59:06;;;;;;;2.55;0.95;;;;;;;;;;5069189;28;20128;-62
2022/09/11 11:01:32;;;;;;;3.35;1.25;;;;;;;;;;5069320;28;20044;-62
2022/09/11 11:03:58;;;;;;;2.70;1.13;;;;;;;;;;5069970;28;20090;-62
2022/09/11 11:06:31;;;;;;;2.05;1.05;;;;;;;;;;5069960;28;20106;-62
2022/09/11 11:09:22;;;;;;;3.67;1.13;;;;;;;;;;5070055;28;20048;-62
2022/09/11 11:11:58;;;;;;;3.13;0.82;;;;;;;;;;5069899;28;20052;-62
2022/09/11 11:14:27;;;;;;;3.20;1.30;;;;;;;;;;5069279;28;20396;-62
2022/09/11 11:17:08;;;;;;;3.63;1.20;;;;;;;;;;5069894;28;20040;-62
2022/09/11 11:19:57;;;;;;;3.63;1.10;;;;;;;;;;5069654;28;20049;-62
2022/09/11 11:22:26;;;;;;;3.40;1.80;;;;;;;;;;5031511;28;20117;-62
2022/09/11 11:24:56;;;;;;;4.32;1.92;;;;;;;;;;5069715;28;20072;-62
2022/09/11 11:27:35;;;;;;;2.33;0.95;;;;;;;;;;5068841;28;20044;-62
2022/09/11 11:30:02;;;;;;;4.60;1.65;;;;;;;;;;5070019;28;20066;-62
2022/09/11 11:32:31;;;;;;;4.70;1.20;;;;;;;;;;5069145;28;20076;-62
2022/09/11 11:35:06;;;;;;;2.40;1.15;;;;;;;;;;5069521;28;20082;-62
2022/09/11 11:37:33;;;;;;;3.17;1.20;;;;;;;;;;5068775;28;20036;-62
2022/09/11 11:40:04;;;;;;;2.03;1.05;;;;;;;;;;5069473;28;20052;-62
2022/09/11 11:42:42;;;;;;;2.63;1.30;;;;;;;;;;5069041;28;20194;-62
2022/09/11 11:45:10;;;;;;;4.70;0.98;;;;;;;;;;5068888;28;20048;-62
2022/09/11 11:47:41;;;;;;;4.00;1.10;;;;;;;;;;5069654;28;20506;-62
2022/09/11 11:50:07;;;;;;;2.65;1.02;;;;;;;;;;5068624;28;20053;-62
2022/09/11 11:52:36;;;;;;;2.58;1.20;;;;;;;;;;5069049;28;20080;-62
2022/09/11 11:55:20;;;;;;;2.10;1.02;;;;;;;;;;5068935;28;20048;-62
2022/09/11 11:57:49;;;;;;;3.55;1.00;;;;;;;;;;5067723;28;20040;-62
2022/09/11 12:00:18;;;;;;;3.33;1.00;;;;;;;;;;5067912;28;20139;-62
2022/09/11 12:02:51;;;;;;;3.38;1.17;;;;;;;;;;5068867;28;20045;-62
2022/09/11 12:05:23;;;;;;;2.95;1.23;;;;;;;;;;5068979;28;20075;-62
2022/09/11 12:07:50;;;;;;;3.60;1.23;;;;;;;;;;5068365;28;20051;-62
2022/09/11 12:10:21;;;;;;;4.32;1.38;;;;;;;;;;5068374;28;20068;-62
2022/09/11 12:12:49;;;;;;;3.13;1.35;;;;;;;;;;5061149;28;20055;-61
2022/09/11 12:15:29;;;;;;;3.13;1.23;;;;;;;;;;5068958;28;20041;-62
2022/09/11 12:18:02;;;;;;;2.72;1.05;;;;;;;;;;5068336;28;20052;-62
2022/09/11 12:20:30;;;;;;;3.90;1.55;;;;;;;;;;5067522;28;20048;-61
2022/09/11 12:22:57;;;;;;;2.42;1.00;;;;;;;;;;5068518;28;20137;-61
2022/09/11 12:25:30;;;;;;;5.38;1.20;;;;;;;;;;5068300;28;20056;-62
2022/09/11 12:28:15;;;;;;;1.90;0.95;;;;;;;;;;5068808;28;20053;-61
2022/09/11 12:30:57;;;;;;;3.05;1.10;;;;;;;;;;5068415;28;20041;-61
2022/09/11 12:33:47;;;;;;;3.47;1.50;;;;;;;;;;5068404;28;20128;-61
2022/09/11 12:36:15;;;;;;;3.50;1.15;;;;;;;;;;5063527;28;20414;-61
2022/09/11 12:38:45;;;;;;;2.55;1.20;;;;;;;;;;5068562;28;20082;-61
2022/09/11 12:41:16;;;;;;;4.05;1.48;;;;;;;;;;5068240;28;20409;-61
2022/09/11 12:43:42;;;;;;;5.75;1.70;;;;;;;;;;5067894;28;20044;-61
2022/09/11 12:46:13;;;;;;;4.18;1.23;;;;;;;;;;5067892;28;20049;-61
2022/09/11 12:48:43;;;;;;;3.90;1.10;;;;;;;;;;5067620;28;20513;-61
2022/09/11 12:51:22;;;;;;;4.88;1.27;;;;;;;;;;5067658;28;20542;-61
2022/09/11 12:53:49;;;;;;;6.78;1.40;;;;;;;;;;5067872;28;20131;-61
2022/09/11 12:56:18;;;;;;;4.70;1.30;;;;;;;;;;5067865;28;20044;-61
2022/09/11 12:58:46;;;;;;;3.55;1.20;;;;;;;;;;5067806;28;20217;-61
2022/09/11 13:01:17;;;;;;;2.00;1.23;;;;;;;;;;5067734;28;20040;-61
2022/09/11 13:03:52;;;;;;;3.65;1.35;;;;;;;;;;5068258;28;20504;-61
2022/09/11 13:06:19;;;;;;;3.28;1.30;;;;;;;;;;5067826;28;20112;-61
2022/09/11 13:08:50;;;;;;;2.72;1.25;;;;;;;;;;5067064;28;20050;-61
2022/09/11 13:11:35;;;;;;;3.67;1.40;;;;;;;;;;5067456;28;20059;-61
2022/09/11 13:14:01;;;;;;;3.85;1.33;;;;;;;;;;5058834;28;20156;-61
2022/09/11 13:16:29;;;;;;;2.13;1.00;;;;;;;;;;5067386;28;20052;-61
2022/09/11 13:19:15;;;;;;;4.72;1.50;;;;;;;;;;5067579;28;20400;-61
2022/09/11 13:21:43;;;;;;;2.38;1.10;;;;;;;;;;5069603;28;20059;-61
2022/09/11 13:24:24;;;;;;;2.75;0.93;;;;;;;;;;5071321;28;20487;-61
2022/09/11 13:26:54;;;;;;;2.67;1.20;;;;;;;;;;5070905;28;20535;-61
2022/09/11 13:29:20;;;;;;;2.58;0.85;;;;;;;;;;5071452;28;20080;-61
2022/09/11 13:31:47;;;;;;;1.98;0.95;;;;;;;;;;5070964;28;20051;-61
2022/09/11 13:34:15;;;;;;;2.60;1.17;;;;;;;;;;5071055;28;20043;-61
2022/09/11 13:36:42;;;;;;;1.17;0.60;;;;;;;;;;5070767;28;20040;-61
2022/09/11 13:39:09;;;;;;;2.40;1.10;;;;;;;;;;5071208;28;20048;-61
2022/09/11 13:41:43;;;;;;;3.47;1.27;;;;;;;;;;5070990;28;20406;-61
2022/09/11 13:44:29;;;;;;;4.32;1.42;;;;;;;;;;5070931;28;20533;-61
2022/09/11 13:46:55;;;;;;;3.60;1.25;;;;;;;;;;5065248;28;20060;-61
2022/09/11 13:49:21;;;;;;;2.40;1.08;;;;;;;;;;5070713;28;20542;-61
2022/09/11 13:51:48;;;;;;;3.03;1.00;;;;;;;;;;5070804;28;20414;-61
2022/09/11 13:54:15;;;;;;;2.13;1.00;;;;;;;;;;5070729;28;20391;-61
2022/09/11 13:56:46;;;;;;;2.70;0.98;;;;;;;;;;5069175;28;20051;-61
2022/09/11 13:59:45;;;;;;;1.60;0.90;;;;;;;;;;5070821;28;20079;-61
2022/09/11 14:02:23;;;;;;;4.65;1.08;;;;;;;;;;5026096;28;20497;-61
2022/09/11 14:04:53;;;;;;;1.88;0.82;;;;;;;;;;5069007;28;20450;-60
2022/09/11 14:07:21;;;;;;;3.55;1.20;;;;;;;;;;5062126;28;20048;-61
2022/09/11 14:09:50;;;;;;;2.13;0.90;;;;;;;;;;5070415;28;20057;-62
2022/09/11 14:12:19;;;;;;;2.42;1.33;;;;;;;;;;5070195;28;20502;-62
2022/09/11 14:14:48;;;;;;;4.10;1.00;;;;;;;;;;5069341;28;20044;-62
2022/09/11 14:17:16;;;;;;;2.80;0.90;;;;;;;;;;5069029;28;20060;-62
2022/09/11 14:19:44;;;;;;;1.80;0.70;;;;;;;;;;5069390;28;20046;-61
2022/09/11 14:22:23;;;;;;;2.08;0.82;;;;;;;;;;5069241;28;20106;-61
2022/09/11 14:24:52;;;;;;;3.70;1.00;;;;;;;;;;5069962;28;20099;-61
2022/09/11 14:27:33;;;;;;;3.70;0.82;;;;;;;;;;5069632;28;20048;-61
2022/09/11 14:30:00;;;;;;;2.78;0.90;;;;;;;;;;5069133;28;20037;-61
2022/09/11 14:32:36;;;;;;;5.10;1.30;;;;;;;;;;5069588;28;20074;-61
2022/09/11 14:35:05;;;;;;;2.58;1.30;;;;;;;;;;5070334;28;20040;-62